createdAt,value
2023-04-08T00:00:02.018Z,102243.47
2023-04-08T00:02:34.979Z,102237.19
2023-04-08T00:05:10.103Z,102248.66
2023-04-08T00:07:42.823Z,102242.69
2023-04-08T00:10:15.627Z,102240.16
2023-04-08T00:12:55.299Z,102248.38
2023-04-08T00:15:28.238Z,102240.63
2023-04-08T00:18:01.332Z,102245.75
2023-04-08T00:20:35.556Z,102244.97
2023-04-08T00:23:08.287Z,102239.47
2023-04-08T00:25:41.219Z,102237.19
2023-04-08T00:28:15.379Z,102240.72
2023-04-08T00:30:48.616Z,102241.75
2023-04-08T00:33:21.687Z,102237.72
2023-04-08T00:35:57.158Z,102237.41
2023-04-08T00:38:30.939Z,102248.84
2023-04-08T00:41:03.711Z,102246.75
2023-04-08T00:43:36.413Z,102240.81
2023-04-08T00:46:10.853Z,102236.63
2023-04-08T00:48:43.752Z,102239.00
2023-04-08T00:51:17.958Z,102238.72
2023-04-08T00:53:50.783Z,102237.41
2023-04-08T00:56:23.983Z,102237.25
2023-04-08T00:58:56.847Z,102235.31
2023-04-08T01:01:34.576Z,102238.56
2023-04-08T01:04:14.569Z,102245.34
2023-04-08T01:06:56.004Z,102239.88
2023-04-08T01:09:33.356Z,102241.31
2023-04-08T01:12:09.244Z,102238.91
2023-04-08T01:14:46.036Z,102242.13
2023-04-08T01:17:20.629Z,102235.84
2023-04-08T01:19:55.792Z,102242.72
2023-04-08T01:22:38.330Z,102240.16
2023-04-08T01:25:17.678Z,102240.81
2023-04-08T01:27:56.489Z,102241.81
2023-04-08T01:30:31.441Z,102244.06
2023-04-08T01:33:06.705Z,102245.47
2023-04-08T01:35:39.770Z,102242.91
2023-04-08T01:38:17.984Z,102241.66
2023-04-08T01:40:52.093Z,102254.72
2023-04-08T01:43:28.394Z,102247.47
2023-04-08T01:46:02.286Z,102248.41
2023-04-08T01:48:36.636Z,102253.44
2023-04-08T01:51:10.841Z,102256.97
2023-04-08T01:53:44.246Z,102254.56
2023-04-08T01:56:17.947Z,102261.53
2023-04-08T01:58:56.184Z,102263.59
2023-04-08T02:01:31.646Z,102263.94
2023-04-08T02:04:05.299Z,102260.84
2023-04-08T02:06:39.112Z,102259.78
2023-04-08T02:09:12.323Z,102249.75
2023-04-08T02:11:45.059Z,102248.47
2023-04-08T02:14:20.739Z,102247.47
2023-04-08T02:16:55.902Z,102244.94
2023-04-08T02:19:32.220Z,102248.97
2023-04-08T02:22:10.779Z,102236.38
2023-04-08T02:24:44.713Z,102243.66
2023-04-08T02:27:19.783Z,102248.97
2023-04-08T02:29:58.154Z,102249.41
2023-04-08T02:32:33.939Z,102242.66
2023-04-08T02:35:08.015Z,102244.00
2023-04-08T02:37:41.180Z,102240.25
2023-04-08T02:40:27.545Z,102248.13
2023-04-08T02:43:01.525Z,102244.13
2023-04-08T02:45:40.213Z,102247.75
2023-04-08T02:48:13.182Z,102251.56
2023-04-08T02:50:46.156Z,102251.09
2023-04-08T02:53:19.739Z,102260.13
2023-04-08T02:55:53.188Z,102260.47
2023-04-08T02:58:26.348Z,102266.94
2023-04-08T03:01:00.477Z,102263.38
2023-04-08T03:03:33.564Z,102266.47
2023-04-08T03:06:06.681Z,102265.31
2023-04-08T03:08:39.557Z,102261.91
2023-04-08T03:11:12.751Z,102266.47
2023-04-08T03:13:46.777Z,102266.25
2023-04-08T03:16:21.164Z,102280.81
2023-04-08T03:18:54.128Z,102281.09
2023-04-08T03:21:27.103Z,102278.88
2023-04-08T03:23:59.840Z,102277.44
2023-04-08T03:26:32.546Z,102273.75
2023-04-08T03:29:06.884Z,102277.50
2023-04-08T03:31:41.675Z,102286.97
2023-04-08T03:34:14.903Z,102282.69
2023-04-08T03:36:47.783Z,102288.47
2023-04-08T03:39:20.767Z,102288.66
2023-04-08T03:41:53.829Z,102286.53
2023-04-08T03:44:26.648Z,102285.28
2023-04-08T03:47:00.740Z,102296.59
2023-04-08T03:49:33.780Z,102290.75
2023-04-08T03:52:07.279Z,102291.56
2023-04-08T03:54:40.150Z,102298.00
2023-04-08T03:57:13.094Z,102293.69
2023-04-08T03:59:46.352Z,102298.19
2023-04-08T04:02:20.824Z,102308.53
2023-04-08T04:04:53.676Z,102307.66
2023-04-08T04:07:26.662Z,102304.66
2023-04-08T04:09:59.410Z,102307.19
2023-04-08T04:12:32.204Z,102309.81
2023-04-08T04:15:08.489Z,102320.44
2023-04-08T04:17:43.395Z,102308.81
2023-04-08T04:20:19.169Z,102315.09
2023-04-08T04:22:54.234Z,102315.25
2023-04-08T04:25:26.910Z,102313.50
2023-04-08T04:28:00.080Z,102320.72
2023-04-08T04:30:32.822Z,102328.47
2023-04-08T04:33:07.342Z,102313.34
2023-04-08T04:35:40.997Z,102315.88
2023-04-08T04:38:13.880Z,102323.66
2023-04-08T04:40:46.940Z,102319.78
2023-04-08T04:43:20.144Z,102315.44
2023-04-08T04:45:52.835Z,102318.31
2023-04-08T04:48:27.245Z,102322.34
2023-04-08T04:51:01.401Z,102318.97
2023-04-08T04:53:34.624Z,102320.72
2023-04-08T04:56:07.861Z,102324.78
2023-04-08T04:58:40.676Z,102329.59
2023-04-08T05:01:13.471Z,102332.22
2023-04-08T05:03:48.132Z,102333.97
2023-04-08T05:06:21.219Z,102337.19
2023-04-08T05:08:54.745Z,102338.81
2023-04-08T05:11:27.504Z,102345.09
2023-04-08T05:14:00.331Z,102339.66
2023-04-08T05:16:33.533Z,102340.47
2023-04-08T05:19:10.200Z,102335.13
2023-04-08T05:21:43.019Z,102349.44
2023-04-08T05:24:16.234Z,102351.09
2023-04-08T05:26:53.533Z,102354.47
2023-04-08T05:29:26.581Z,102356.25
2023-04-08T05:32:00.038Z,102359.31
2023-04-08T05:34:34.544Z,102364.13
2023-04-08T05:37:07.598Z,102358.06
2023-04-08T05:39:40.443Z,102358.34
2023-04-08T05:42:13.917Z,102360.13
2023-04-08T05:44:46.890Z,102369.78
2023-04-08T05:47:19.458Z,102372.34
2023-04-08T05:49:56.472Z,102380.25
2023-04-08T05:52:29.246Z,102381.88
2023-04-08T05:55:02.059Z,102386.03
2023-04-08T05:57:34.777Z,102386.84
2023-04-08T06:00:09.640Z,102393.59
2023-04-08T06:02:43.137Z,102394.56
2023-04-08T06:05:17.486Z,102397.47
2023-04-08T06:07:50.503Z,102399.53
2023-04-08T06:10:23.461Z,102401.47
2023-04-08T06:12:56.795Z,102396.16
2023-04-08T06:15:29.860Z,102399.84
2023-04-08T06:18:03.130Z,102404.97
2023-04-08T06:20:38.189Z,102407.41
2023-04-08T06:23:11.035Z,102414.34
2023-04-08T06:25:43.776Z,102417.72
2023-04-08T06:28:17.560Z,102418.69
2023-04-08T06:30:50.573Z,102424.16
2023-04-08T06:33:23.643Z,102425.75
2023-04-08T06:36:04.865Z,102429.78
2023-04-08T06:38:37.875Z,102430.41
2023-04-08T06:41:11.013Z,102434.75
2023-04-08T06:43:43.863Z,102436.34
2023-04-08T06:46:16.996Z,102430.72
2023-04-08T06:48:50.460Z,102441.00
2023-04-08T06:51:28.020Z,102438.88
2023-04-08T06:54:00.765Z,102445.13
2023-04-08T06:56:33.628Z,102440.44
2023-04-08T06:59:06.926Z,102444.16
2023-04-08T07:01:39.709Z,102452.66
2023-04-08T07:04:13.069Z,102452.13
2023-04-08T07:06:47.303Z,102460.03
2023-04-08T07:09:23.439Z,102465.53
2023-04-08T07:11:57.738Z,102464.84
2023-04-08T07:14:30.932Z,102472.88
2023-04-08T07:17:03.719Z,102469.41
2023-04-08T07:19:37.510Z,102464.03
2023-04-08T07:22:11.607Z,102469.75
2023-04-08T07:24:49.568Z,102473.41
2023-04-08T07:27:22.662Z,102482.03
2023-04-08T07:29:55.987Z,102478.25
2023-04-08T07:32:29.096Z,102482.41
2023-04-08T07:35:02.262Z,102483.22
2023-04-08T07:37:36.743Z,102481.75
2023-04-08T07:40:10.949Z,102485.09
2023-04-08T07:42:43.805Z,102485.09
2023-04-08T07:45:17.011Z,102492.25
2023-04-08T07:47:49.931Z,102489.94
2023-04-08T07:50:23.496Z,102496.50
2023-04-08T07:52:57.597Z,102496.16
2023-04-08T07:55:34.847Z,102507.94
2023-04-08T07:58:07.818Z,102501.56
2023-04-08T08:00:40.900Z,102508.13
2023-04-08T08:03:14.111Z,102511.50
2023-04-08T08:05:47.290Z,102511.94
2023-04-08T08:08:21.631Z,102514.03
2023-04-08T08:10:54.538Z,102512.91
2023-04-08T08:13:27.540Z,102517.59
2023-04-08T08:16:00.870Z,102518.31
2023-04-08T08:18:36.026Z,102518.66
2023-04-08T08:21:09.239Z,102512.38
2023-04-08T08:23:43.898Z,102516.03
2023-04-08T08:26:17.206Z,102525.56
2023-04-08T08:28:50.512Z,102527.53
2023-04-08T08:31:26.063Z,102530.72
2023-04-08T08:33:58.957Z,102524.56
2023-04-08T08:36:32.838Z,102522.66
2023-04-08T08:39:08.472Z,102523.09
2023-04-08T08:41:42.311Z,102534.00
2023-04-08T08:44:15.835Z,102524.84
2023-04-08T08:46:49.588Z,102529.44
2023-04-08T08:49:23.847Z,102530.81
2023-04-08T08:51:57.238Z,102530.84
2023-04-08T08:54:31.871Z,102539.19
2023-04-08T08:57:05.334Z,102536.22
2023-04-08T08:59:38.489Z,102533.25
2023-04-08T09:02:24.238Z,102532.44
2023-04-08T09:04:59.719Z,102539.56
2023-04-08T09:07:36.881Z,102537.34
2023-04-08T09:10:11.896Z,102537.47
2023-04-08T09:12:56.766Z,102540.94
2023-04-08T09:15:30.386Z,102538.50
2023-04-08T09:18:03.929Z,102547.69
2023-04-08T09:20:37.257Z,102541.97
2023-04-08T09:23:09.987Z,102550.56
2023-04-08T09:25:44.531Z,102543.91
2023-04-08T09:28:21.586Z,102542.19
2023-04-08T09:30:54.786Z,102543.88
2023-04-08T09:33:32.382Z,102533.31
2023-04-08T09:36:05.480Z,102538.56
2023-04-08T09:38:38.393Z,102542.31
2023-04-08T09:41:14.265Z,102542.13
2023-04-08T09:43:50.865Z,102549.63
2023-04-08T09:46:27.842Z,102540.50
2023-04-08T09:49:07.353Z,102549.59
2023-04-08T09:51:44.699Z,102548.97
2023-04-08T09:54:23.140Z,102550.56
2023-04-08T09:57:06.466Z,102549.81
2023-04-08T09:59:45.872Z,102555.53
2023-04-08T10:02:23.783Z,102552.69
2023-04-08T10:04:59.014Z,102549.34
2023-04-08T10:07:31.897Z,102553.16
2023-04-08T10:10:05.668Z,102552.41
2023-04-08T10:12:40.708Z,102543.59
2023-04-08T10:15:29.904Z,102542.72
2023-04-08T10:18:31.402Z,102550.59
2023-04-08T10:21:04.564Z,102535.31
2023-04-08T10:23:59.580Z,102540.63
2023-04-08T10:26:34.858Z,102542.06
2023-04-08T10:29:34.831Z,102538.00
2023-04-08T10:32:07.810Z,102542.78
2023-04-08T10:34:53.921Z,102540.00
2023-04-08T10:37:26.658Z,102535.13
2023-04-08T10:39:59.593Z,102534.56
2023-04-08T10:42:32.320Z,102532.69
2023-04-08T10:45:07.368Z,102537.13
2023-04-08T10:47:40.649Z,102540.50
2023-04-08T10:50:15.605Z,102541.72
2023-04-08T10:52:48.874Z,102542.63
2023-04-08T10:55:25.083Z,102540.28
2023-04-08T10:58:07.864Z,102543.72
2023-04-08T11:00:42.191Z,102548.13
2023-04-08T11:03:15.810Z,102534.81
2023-04-08T11:05:51.855Z,102539.44
2023-04-08T11:08:29.105Z,102536.56
2023-04-08T11:11:02.751Z,102538.53
2023-04-08T11:13:36.880Z,102531.81
2023-04-08T11:16:18.294Z,102533.47
2023-04-08T11:18:52.446Z,102529.59
2023-04-08T11:21:29.090Z,102529.69
2023-04-08T11:24:02.029Z,102533.41
2023-04-08T11:26:35.588Z,102527.06
2023-04-08T11:29:12.724Z,102531.06
2023-04-08T11:31:49.605Z,102536.38
2023-04-08T11:34:26.186Z,102541.44
2023-04-08T11:36:59.552Z,102533.78
2023-04-08T11:39:32.349Z,102540.44
2023-04-08T11:42:05.147Z,102542.66
2023-04-08T11:44:37.840Z,102539.16
2023-04-08T11:47:12.012Z,102536.72
2023-04-08T11:49:45.635Z,102539.31
2023-04-08T11:52:18.450Z,102541.88
2023-04-08T11:54:51.432Z,102540.78
2023-04-08T11:57:32.696Z,102538.53
2023-04-08T12:00:06.930Z,102539.44
2023-04-08T12:02:44.944Z,102536.91
2023-04-08T12:05:18.088Z,102533.38
2023-04-08T12:07:51.098Z,102539.31
2023-04-08T12:10:25.084Z,102540.81
2023-04-08T12:12:58.002Z,102539.69
2023-04-08T12:15:30.760Z,102540.72
2023-04-08T12:18:05.890Z,102536.91
2023-04-08T12:20:38.688Z,102543.03
2023-04-08T12:23:11.562Z,102542.19
2023-04-08T12:25:44.751Z,102537.88
2023-04-08T12:28:17.714Z,102538.72
2023-04-08T12:30:50.573Z,102535.53
2023-04-08T12:33:24.901Z,102531.91
2023-04-08T12:35:59.132Z,102534.72
2023-04-08T12:38:33.788Z,102532.34
2023-04-08T12:41:07.603Z,102535.50
2023-04-08T12:43:40.618Z,102532.28
2023-04-08T12:46:13.548Z,102530.72
2023-04-08T12:48:59.705Z,102523.56
2023-04-08T12:51:36.756Z,102522.72
2023-04-08T12:54:09.956Z,102521.50
2023-04-08T12:56:43.372Z,102521.97
2023-04-08T12:59:16.382Z,102521.81
2023-04-08T13:01:49.125Z,102514.63
2023-04-08T13:04:23.271Z,102531.78
2023-04-08T13:06:56.994Z,102528.47
2023-04-08T13:09:30.798Z,102528.19
2023-04-08T13:12:03.845Z,102523.38
2023-04-08T13:14:37.585Z,102530.09
2023-04-08T13:17:10.576Z,102532.81
2023-04-08T13:19:44.811Z,102525.66
2023-04-08T13:22:17.929Z,102515.72
2023-04-08T13:24:51.395Z,102525.75
2023-04-08T13:27:24.326Z,102512.84
2023-04-08T13:29:57.371Z,102504.53
2023-04-08T13:32:30.334Z,102495.25
2023-04-08T13:35:04.915Z,102511.28
2023-04-08T13:37:37.910Z,102499.34
2023-04-08T13:40:12.240Z,102504.38
2023-04-08T13:45:17.839Z,102497.50
2023-04-08T13:47:50.573Z,102492.09
2023-04-08T13:50:25.109Z,102492.16
2023-04-08T13:52:58.134Z,102496.22
2023-04-08T13:55:31.151Z,102493.59
2023-04-08T13:58:08.786Z,102489.72
2023-04-08T14:00:47.032Z,102494.91
2023-04-08T14:03:19.975Z,102499.69
2023-04-08T14:05:56.280Z,102497.66
2023-04-08T14:08:29.056Z,102505.25
2023-04-08T14:11:01.944Z,102499.59
2023-04-08T14:13:34.589Z,102495.53
2023-04-08T14:16:07.733Z,102491.53
2023-04-08T14:18:40.872Z,102485.16
2023-04-08T14:21:16.218Z,102483.53
2023-04-08T14:23:49.009Z,102485.19
2023-04-08T14:26:22.381Z,102488.47
2023-04-08T14:28:55.168Z,102479.69
2023-04-08T14:31:28.318Z,102480.00
2023-04-08T14:34:01.980Z,102479.56
2023-04-08T14:36:36.442Z,102479.56
2023-04-08T14:39:09.596Z,102478.78
2023-04-08T14:41:42.338Z,102475.81
2023-04-08T14:44:15.296Z,102478.56
2023-04-08T14:46:48.267Z,102478.97
2023-04-08T14:49:21.842Z,102475.00
2023-04-08T14:51:56.993Z,102474.22
2023-04-08T14:54:29.923Z,102475.41
2023-04-08T14:57:03.694Z,102473.03
2023-04-08T14:59:36.455Z,102482.16
2023-04-08T15:02:09.507Z,102478.97
2023-04-08T15:04:42.317Z,102482.16
2023-04-08T15:07:16.828Z,102485.34
2023-04-08T15:09:49.549Z,102483.75
2023-04-08T15:12:23.183Z,102487.63
2023-04-08T15:14:56.103Z,102482.09
2023-04-08T15:17:28.842Z,102486.13
2023-04-08T15:20:01.618Z,102481.19
2023-04-08T15:22:35.881Z,102476.47
2023-04-08T15:25:09.608Z,102479.69
2023-04-08T15:27:43.039Z,102478.13
2023-04-08T15:30:17.304Z,102490.03
2023-04-08T15:32:50.254Z,102474.47
2023-04-08T15:35:23.357Z,102479.25
2023-04-08T15:37:57.596Z,102481.19
2023-04-08T15:40:34.244Z,102480.81
2023-04-08T15:43:10.131Z,102478.41
2023-04-08T15:45:46.601Z,102474.84
2023-04-08T15:48:19.694Z,102468.00
2023-04-08T15:50:52.647Z,102472.41
2023-04-08T15:53:26.957Z,102471.53
2023-04-08T15:55:59.845Z,102469.16
2023-04-08T15:58:32.719Z,102476.31
2023-04-08T16:01:05.706Z,102476.13
2023-04-08T16:03:38.934Z,102475.78
2023-04-08T16:06:11.899Z,102476.56
2023-04-08T16:08:47.181Z,102484.06
2023-04-08T16:11:20.075Z,102480.06
2023-04-08T16:13:53.059Z,102479.63
2023-04-08T16:16:26.620Z,102474.41
2023-04-08T16:19:00.221Z,102477.88
2023-04-08T16:21:32.978Z,102478.59
2023-04-08T16:24:07.441Z,102474.97
2023-04-08T16:26:40.885Z,102472.53
2023-04-08T16:29:13.817Z,102471.97
2023-04-08T16:31:46.678Z,102473.91
2023-04-08T16:34:19.761Z,102480.97
2023-04-08T16:36:55.558Z,102480.09
2023-04-08T16:39:29.825Z,102479.59
2023-04-08T16:42:02.554Z,102481.94
2023-04-08T16:44:35.615Z,102486.25
2023-04-08T16:47:08.400Z,102475.94
2023-04-08T16:49:41.242Z,102485.81
2023-04-08T16:52:13.937Z,102486.94
2023-04-08T16:54:48.179Z,102484.50
2023-04-08T16:57:21.196Z,102488.34
2023-04-08T16:59:54.188Z,102485.91
2023-04-08T17:02:27.315Z,102477.94
2023-04-08T17:05:00.624Z,102473.78
2023-04-08T17:07:33.970Z,102480.88
2023-04-08T17:10:09.679Z,102480.00
2023-04-08T17:12:42.763Z,102483.97
2023-04-08T17:15:15.822Z,102477.56
2023-04-08T17:17:48.660Z,102484.59
2023-04-08T17:20:22.093Z,102484.56
2023-04-08T17:22:54.841Z,102482.91
2023-04-08T17:25:29.226Z,102485.84
2023-04-08T17:28:02.748Z,102486.13
2023-04-08T17:30:35.665Z,102486.94
2023-04-08T17:33:08.293Z,102495.94
2023-04-08T17:35:41.412Z,102491.22
2023-04-08T17:38:14.464Z,102490.38
2023-04-08T17:40:48.724Z,102492.97
2023-04-08T17:43:21.595Z,102485.78
2023-04-08T17:45:54.379Z,102486.84
2023-04-08T17:48:27.680Z,102485.59
2023-04-08T17:51:01.771Z,102489.91
2023-04-08T17:53:35.428Z,102494.91
2023-04-08T17:56:10.002Z,102490.06
2023-04-08T17:58:42.849Z,102497.06
2023-04-08T18:01:15.706Z,102489.88
2023-04-08T18:03:49.837Z,102494.13
2023-04-08T18:06:22.859Z,102492.41
2023-04-08T18:08:55.621Z,102493.06
2023-04-08T18:11:30.146Z,102498.91
2023-04-08T18:14:02.862Z,102499.22
2023-04-08T18:16:35.620Z,102502.69
2023-04-08T18:19:08.630Z,102500.22
2023-04-08T18:21:41.303Z,102501.38
2023-04-08T18:24:14.159Z,102504.81
2023-04-08T18:26:54.452Z,102507.53
2023-04-08T18:29:34.622Z,102502.59
2023-04-08T18:32:07.486Z,102511.97
2023-04-08T18:34:40.392Z,102507.88
2023-04-08T18:37:13.268Z,102513.34
2023-04-08T18:39:46.028Z,102509.28
2023-04-08T18:42:20.353Z,102519.41
2023-04-08T18:44:53.054Z,102526.03
2023-04-08T18:47:25.922Z,102537.28
2023-04-08T18:49:58.622Z,102530.44
2023-04-08T18:52:32.422Z,102532.75
2023-04-08T18:55:05.538Z,102536.28
2023-04-08T18:57:39.762Z,102535.47
2023-04-08T19:00:13.092Z,102547.59
2023-04-08T19:02:46.204Z,102542.25
2023-04-08T19:05:19.326Z,102543.94
2023-04-08T19:07:53.094Z,102549.22
2023-04-08T19:10:26.040Z,102545.41
2023-04-08T19:13:00.043Z,102549.09
2023-04-08T19:15:32.786Z,102550.91
2023-04-08T19:18:05.766Z,102551.06
2023-04-08T19:20:39.324Z,102554.38
2023-04-08T19:23:12.033Z,102554.91
2023-04-08T19:25:44.929Z,102552.41
2023-04-08T19:28:18.811Z,102555.59
2023-04-08T19:30:51.619Z,102561.06
2023-04-08T19:33:24.288Z,102561.13
2023-04-08T19:35:57.777Z,102558.50
2023-04-08T19:38:30.899Z,102557.69
2023-04-08T19:41:03.741Z,102560.16
2023-04-08T19:43:37.929Z,102562.22
2023-04-08T19:46:10.753Z,102558.66
2023-04-08T19:48:44.327Z,102565.03
2023-04-08T19:51:20.255Z,102562.50
2023-04-08T19:53:53.298Z,102562.66
2023-04-08T19:56:26.611Z,102555.09
2023-04-08T19:59:01.366Z,102558.09
2023-04-08T20:01:35.863Z,102563.19
2023-04-08T20:04:09.177Z,102554.72
2023-04-08T20:06:42.225Z,102555.94
2023-04-08T20:09:14.784Z,102556.91
2023-04-08T20:11:47.512Z,102553.59
2023-04-08T20:14:21.788Z,102559.31
2023-04-08T20:16:54.448Z,102563.78
2023-04-08T20:19:27.302Z,102562.53
2023-04-08T20:21:59.931Z,102554.50
2023-04-08T20:24:38.346Z,102565.97
2023-04-08T20:27:11.139Z,102568.75
2023-04-08T20:29:45.576Z,102574.16
2023-04-08T20:32:18.334Z,102569.94
2023-04-08T20:34:51.582Z,102573.97
2023-04-08T20:37:24.237Z,102571.25
2023-04-08T20:39:57.550Z,102561.94
2023-04-08T20:42:30.603Z,102566.28
2023-04-08T20:45:05.067Z,102566.50
2023-04-08T20:47:37.888Z,102563.88
2023-04-08T20:50:11.626Z,102563.81
2023-04-08T20:52:44.418Z,102562.53
2023-04-08T20:55:17.666Z,102562.19
2023-04-08T20:57:50.426Z,102560.84
2023-04-08T21:00:24.563Z,102567.72
2023-04-08T21:02:57.753Z,102567.50
2023-04-08T21:05:30.529Z,102566.97
2023-04-08T21:08:03.256Z,102561.09
2023-04-08T21:10:36.059Z,102566.03
2023-04-08T21:13:08.877Z,102564.78
2023-04-08T21:15:43.140Z,102559.84
2023-04-08T21:18:15.914Z,102557.34
2023-04-08T21:20:49.886Z,102556.19
2023-04-08T21:23:22.627Z,102553.78
2023-04-08T21:25:56.384Z,102550.34
2023-04-08T21:28:29.173Z,102553.13
2023-04-08T21:31:10.023Z,102552.31
2023-04-08T21:33:42.746Z,102549.56
2023-04-08T21:36:15.530Z,102552.63
2023-04-08T21:38:48.210Z,102557.00
2023-04-08T21:41:21.762Z,102552.72
2023-04-08T21:43:54.675Z,102550.22
2023-04-08T21:46:28.568Z,102552.28
2023-04-08T21:49:01.935Z,102551.47
2023-04-08T21:51:35.267Z,102558.59
2023-04-08T21:54:08.152Z,102554.22
2023-04-08T21:56:40.882Z,102556.75
2023-04-08T21:59:13.648Z,102561.34
2023-04-08T22:01:48.242Z,102556.53
2023-04-08T22:04:22.356Z,102564.78
2023-04-08T22:06:55.232Z,102567.06
2023-04-08T22:09:27.918Z,102562.34
2023-04-08T22:12:01.581Z,102569.34
2023-04-08T22:14:34.322Z,102562.81
2023-04-08T22:17:08.548Z,102562.69
2023-04-08T22:19:41.518Z,102564.97
2023-04-08T22:22:14.131Z,102563.38
2023-04-08T22:24:46.831Z,102572.97
2023-04-08T22:27:19.891Z,102559.91
2023-04-08T22:29:52.582Z,102563.56
2023-04-08T22:32:26.668Z,102558.53
2023-04-08T22:34:59.430Z,102564.47
2023-04-08T22:37:32.727Z,102552.31
2023-04-08T22:40:06.633Z,102555.06
2023-04-08T22:42:39.711Z,102554.47
2023-04-08T22:45:12.350Z,102549.09
2023-04-08T22:47:46.439Z,102551.13
2023-04-08T22:50:19.232Z,102555.16
2023-04-08T22:52:52.192Z,102555.22
2023-04-08T22:55:24.866Z,102544.47
2023-04-08T22:57:57.601Z,102548.59
2023-04-08T23:00:30.535Z,102550.75
2023-04-08T23:03:04.931Z,102543.50
2023-04-08T23:05:37.724Z,102540.31
2023-04-08T23:08:10.488Z,102531.59
2023-04-08T23:10:43.159Z,102537.75
2023-04-08T23:13:15.983Z,102528.75
2023-04-08T23:15:48.793Z,102524.59
2023-04-08T23:18:22.932Z,102519.38
2023-04-08T23:20:57.143Z,102519.38
2023-04-08T23:23:29.915Z,102516.81
2023-04-08T23:26:02.598Z,102511.06
2023-04-08T23:28:35.382Z,102511.06
2023-04-08T23:31:08.084Z,102511.06
2023-04-08T23:33:42.199Z,102504.66
2023-04-08T23:36:14.990Z,102504.19
2023-04-08T23:38:47.754Z,102502.09
2023-04-08T23:41:20.569Z,102511.50
2023-04-08T23:43:53.563Z,102506.00
2023-04-08T23:46:26.202Z,102502.63
2023-04-08T23:49:00.440Z,102499.78
2023-04-08T23:51:33.142Z,102501.03
2023-04-08T23:54:06.616Z,102502.53
2023-04-08T23:56:41.586Z,102497.03
2023-04-08T23:59:14.489Z,102502.25
